createdAt,value
2019-04-20T00:02:27.506Z,95343.55
2019-04-20T00:04:57.085Z,95339.13
2019-04-20T00:07:30.043Z,95345.38
2019-04-20T00:10:07.627Z,95346.49
2019-04-20T00:12:39.975Z,95352.25
2019-04-20T00:14:58.652Z,95345.27
2019-04-20T00:17:28.610Z,95340.54
2019-04-20T00:19:58.998Z,95339.78
2019-04-20T00:22:47.037Z,95345.91
2019-04-20T00:25:25.442Z,95340.59
2019-04-20T00:28:21.074Z,95339.78
2019-04-20T00:30:54.406Z,95338.81
2019-04-20T00:33:23.698Z,95337.20
2019-04-20T00:35:35.937Z,95338.48
2019-04-20T00:38:05.625Z,95330.47
2019-04-20T00:40:36.095Z,95333.40
2019-04-20T00:43:06.766Z,95331.59
2019-04-20T00:45:44.926Z,95325.84
2019-04-20T00:48:19.082Z,95333.08
2019-04-20T00:50:50.835Z,95336.15
2019-04-20T00:53:19.555Z,95327.61
2019-04-20T00:55:38.026Z,95330.02
2019-04-20T00:58:17.373Z,95329.55
2019-04-20T01:01:04.212Z,95330.49
2019-04-20T01:03:23.286Z,95324.36
2019-04-20T01:06:08.227Z,95323.72
2019-04-20T01:08:19.085Z,95326.63
2019-04-20T01:10:51.483Z,95322.44
2019-04-20T01:13:22.927Z,95331.95
2019-04-20T01:15:55.451Z,95327.74
2019-04-20T01:18:19.473Z,95325.48
2019-04-20T01:20:49.184Z,95325.66
2019-04-20T01:23:21.309Z,95320.98
2019-04-20T01:25:56.904Z,95325.97
2019-04-20T01:28:33.802Z,95323.88
2019-04-20T01:30:59.962Z,95318.38
2019-04-20T01:33:32.069Z,95329.19
2019-04-20T01:36:03.444Z,95324.98
2019-04-20T01:38:34.670Z,95324.03
2019-04-20T01:40:50.930Z,95334.78
2019-04-20T01:43:20.609Z,95328.86
2019-04-20T01:45:58.606Z,95330.95
2019-04-20T01:48:25.995Z,95337.56
2019-04-20T01:50:59.854Z,95337.55
2019-04-20T01:53:40.334Z,95340.45
2019-04-20T01:56:09.888Z,95342.38
2019-04-20T01:58:42.124Z,95339.17
2019-04-20T02:00:58.844Z,95342.05
2019-04-20T02:03:48.467Z,95341.41
2019-04-20T02:06:20.237Z,95341.52
2019-04-20T02:08:50.892Z,95344.77
2019-04-20T02:11:23.072Z,95342.66
2019-04-20T02:13:53.404Z,95345.49
2019-04-20T02:16:27.302Z,95345.38
2019-04-20T02:19:05.253Z,95341.67
2019-04-20T02:21:34.236Z,95335.57
2019-04-20T02:23:55.593Z,95336.00
2019-04-20T02:26:20.026Z,95340.67
2019-04-20T02:29:12.205Z,95329.75
2019-04-20T02:37:13.551Z,95339.94
2019-04-20T02:39:45.547Z,95336.91
2019-04-20T02:47:16.417Z,95333.51
2019-04-20T02:52:12.419Z,95328.66
2019-04-20T02:54:46.442Z,95326.74
2019-04-20T02:57:37.870Z,95333.11
2019-04-20T03:02:01.397Z,95335.33
2019-04-20T03:04:28.348Z,95329.03
2019-04-20T03:06:58.401Z,95329.78
2019-04-20T03:09:36.870Z,95334.38
2019-04-20T03:12:08.037Z,95337.78
2019-04-20T03:14:32.418Z,95336.15
2019-04-20T03:17:12.757Z,95333.03
2019-04-20T03:19:31.419Z,95332.83
2019-04-20T03:24:43.676Z,95334.89
2019-04-20T03:27:09.613Z,95333.61
2019-04-20T03:29:51.066Z,95336.81
2019-04-20T03:37:28.039Z,95331.09
2019-04-20T03:39:46.676Z,95337.16
2019-04-20T03:42:03.646Z,95306.33
2019-04-20T03:44:34.262Z,95336.97
2019-04-20T03:47:06.880Z,95332.30
2019-04-20T03:49:54.813Z,95332.02
2019-04-20T03:52:27.820Z,95341.97
2019-04-20T03:54:55.250Z,95342.16
2019-04-20T03:57:34.801Z,95338.22
2019-04-20T04:00:24.425Z,95342.59
2019-04-20T04:03:08.469Z,95336.97
2019-04-20T04:05:27.901Z,95343.81
2019-04-20T04:07:45.284Z,95345.97
2019-04-20T04:10:25.904Z,95344.53
2019-04-20T04:13:09.538Z,95346.63
2019-04-20T04:15:44.238Z,95341.71
2019-04-20T04:18:17.712Z,95353.91
2019-04-20T04:20:47.861Z,95348.62
2019-04-20T04:23:31.139Z,95354.68
2019-04-20T04:26:00.620Z,95351.11
2019-04-20T04:28:28.559Z,95348.84
2019-04-20T04:31:05.185Z,95344.03
2019-04-20T04:36:00.430Z,95354.91
2019-04-20T04:38:37.752Z,95354.01
2019-04-20T04:43:37.285Z,95359.63
2019-04-20T04:45:47.030Z,95356.77
2019-04-20T04:48:23.813Z,95364.53
2019-04-20T04:50:52.766Z,95366.47
2019-04-20T04:53:27.213Z,95361.95
2019-04-20T04:55:54.861Z,95367.76
2019-04-20T04:58:17.401Z,95366.73
2019-04-20T05:00:46.769Z,95372.42
2019-04-20T05:03:35.369Z,95380.39
2019-04-20T05:06:10.587Z,95379.95
2019-04-20T05:08:26.149Z,95382.28
2019-04-20T05:10:51.958Z,95381.17
2019-04-20T05:13:21.935Z,95378.46
2019-04-20T05:16:05.187Z,95376.70
2019-04-20T05:18:44.824Z,95368.45
2019-04-20T05:21:18.811Z,95371.57
2019-04-20T05:23:37.401Z,95371.90
2019-04-20T05:26:20.008Z,95370.73
2019-04-20T05:28:48.562Z,95370.45
2019-04-20T05:31:11.363Z,95365.03
2019-04-20T05:34:02.314Z,95362.53
2019-04-20T05:36:29.721Z,95368.25
2019-04-20T05:39:03.362Z,95361.53
2019-04-20T05:41:32.782Z,95361.97
2019-04-20T05:43:59.756Z,95359.58
2019-04-20T05:46:32.367Z,95364.48
2019-04-20T05:49:13.486Z,95367.40
2019-04-20T05:51:43.270Z,95364.06
2019-04-20T05:54:07.174Z,95357.69
2019-04-20T05:56:43.884Z,95362.91
2019-04-20T05:59:07.322Z,95355.69
2019-04-20T06:01:42.353Z,95355.76
2019-04-20T06:04:10.376Z,95357.13
2019-04-20T06:06:37.735Z,95357.22
2019-04-20T06:11:53.577Z,95352.70
2019-04-20T06:14:10.177Z,95348.95
2019-04-20T06:17:11.167Z,95339.20
2019-04-20T06:19:35.701Z,95348.89
2019-04-20T06:22:23.103Z,95339.27
2019-04-20T06:24:54.814Z,95344.97
2019-04-20T06:27:10.406Z,95342.83
2019-04-20T06:29:41.463Z,95342.59
2019-04-20T06:32:23.453Z,95337.45
2019-04-20T06:34:49.081Z,95345.17
2019-04-20T06:37:10.089Z,95341.24
2019-04-20T06:42:15.210Z,95336.97
2019-04-20T06:44:41.408Z,95333.19
2019-04-20T06:47:29.332Z,95326.00
2019-04-20T06:50:03.360Z,95332.47
2019-04-20T06:55:05.544Z,95327.16
2019-04-20T06:57:40.362Z,95324.33
2019-04-20T07:00:18.172Z,95329.92
2019-04-20T07:02:44.772Z,95319.86
2019-04-20T07:05:13.076Z,95317.26
2019-04-20T07:07:45.099Z,95323.01
2019-04-20T07:12:36.889Z,95321.27
2019-04-20T07:15:08.559Z,95323.70
2019-04-20T07:20:51.612Z,95306.60
2019-04-20T07:23:23.688Z,95299.91
2019-04-20T07:25:47.366Z,95300.39
2019-04-20T07:28:24.319Z,95296.84
2019-04-20T07:30:44.899Z,95301.19
2019-04-20T07:33:24.389Z,95296.55
2019-04-20T07:35:46.136Z,95304.49
2019-04-20T07:38:31.275Z,95295.88
2019-04-20T07:40:44.008Z,95289.64
2019-04-20T07:43:14.665Z,95290.52
2019-04-20T07:45:50.238Z,95284.00
2019-04-20T07:48:30.753Z,95278.27
2019-04-20T07:50:40.843Z,95280.94
2019-04-20T07:53:18.771Z,95273.15
2019-04-20T07:56:04.906Z,95262.20
2019-04-20T07:58:10.918Z,95254.52
2019-04-20T08:01:05.892Z,95253.25
2019-04-20T08:05:50.328Z,95262.62
2019-04-20T08:08:23.981Z,95254.98
2019-04-20T08:10:55.021Z,95260.25
2019-04-20T08:13:42.085Z,95246.84
2019-04-20T08:16:00.623Z,95244.09
2019-04-20T08:18:35.227Z,95245.92
2019-04-20T08:21:03.859Z,95250.27
2019-04-20T08:23:34.854Z,95242.42
2019-04-20T08:25:52.347Z,95244.78
2019-04-20T08:28:22.714Z,95239.80
2019-04-20T08:31:06.566Z,95233.21
2019-04-20T08:33:47.175Z,95230.80
2019-04-20T08:36:12.285Z,95233.61
2019-04-20T08:41:09.700Z,95225.05
2019-04-20T08:46:15.074Z,95214.73
2019-04-20T08:48:46.912Z,95213.52
2019-04-20T08:51:16.545Z,95211.94
2019-04-20T08:53:47.670Z,95202.98
2019-04-20T08:56:11.913Z,95202.97
2019-04-20T08:58:27.611Z,95200.70
2019-04-20T09:01:00.192Z,95197.73
2019-04-20T09:03:31.712Z,95195.91
2019-04-20T09:06:06.399Z,95192.88
2019-04-20T09:08:36.693Z,95191.66
2019-04-20T09:11:16.717Z,95189.91
2019-04-20T09:13:37.193Z,95188.84
2019-04-20T09:15:59.972Z,95172.72
2019-04-20T09:18:43.855Z,95180.88
2019-04-20T09:21:18.299Z,95176.12
2019-04-20T09:23:51.821Z,95178.91
2019-04-20T09:26:25.054Z,95175.97
2019-04-20T09:28:54.348Z,95173.02
2019-04-20T09:31:33.110Z,95175.16
2019-04-20T09:34:13.338Z,95170.00
2019-04-20T09:36:44.648Z,95171.06
2019-04-20T09:39:12.742Z,95157.19
2019-04-20T09:41:56.290Z,95159.75
2019-04-20T09:44:06.702Z,95156.70
2019-04-20T09:46:41.285Z,95150.83
2019-04-20T09:49:15.733Z,95147.92
2019-04-20T09:51:50.041Z,95143.81
2019-04-20T09:54:25.825Z,95143.81
2019-04-20T09:57:02.143Z,95144.15
2019-04-20T09:59:28.989Z,95138.63
2019-04-20T10:01:45.030Z,95130.69
2019-04-20T10:04:09.072Z,95128.59
2019-04-20T10:06:39.314Z,95121.84
2019-04-20T10:09:09.631Z,95120.77
2019-04-20T10:11:41.779Z,95118.69
2019-04-20T10:14:10.300Z,95119.69
2019-04-20T10:16:39.996Z,95114.85
2019-04-20T10:19:11.448Z,95114.06
2019-04-20T10:21:39.120Z,95107.36
2019-04-20T10:24:08.560Z,95101.66
2019-04-20T10:26:38.576Z,95106.11
2019-04-20T10:29:07.916Z,95102.40
2019-04-20T10:31:42.660Z,95102.80
2019-04-20T10:34:07.514Z,95097.13
2019-04-20T10:36:43.843Z,95093.45
2019-04-20T10:39:12.960Z,95092.22
2019-04-20T10:41:48.950Z,95094.23
2019-04-20T10:44:12.411Z,95082.33
2019-04-20T10:46:41.036Z,95084.30
2019-04-20T10:49:11.094Z,95078.11
2019-04-20T10:51:40.303Z,95079.28
2019-04-20T10:54:08.992Z,95072.94
2019-04-20T10:56:37.640Z,95077.56
2019-04-20T10:59:07.627Z,95076.35
2019-04-20T11:01:37.856Z,95071.32
2019-04-20T11:04:06.677Z,95069.17
2019-04-20T11:06:36.485Z,95059.94
2019-04-20T11:09:08.769Z,95063.66
2019-04-20T11:11:38.782Z,95061.56
2019-04-20T11:14:17.917Z,95057.58
2019-04-20T11:16:40.287Z,95057.27
2019-04-20T11:19:09.445Z,95050.19
2019-04-20T11:21:40.808Z,95050.14
2019-04-20T11:24:10.043Z,95042.86
2019-04-20T11:26:41.641Z,95040.95
2019-04-20T11:29:10.438Z,95039.11
2019-04-20T11:31:46.338Z,95035.84
2019-04-20T11:34:10.253Z,95041.67
2019-04-20T11:36:39.311Z,95043.53
2019-04-20T11:39:11.269Z,95036.61
2019-04-20T11:41:41.490Z,95030.96
2019-04-20T11:44:11.720Z,95033.86
2019-04-20T11:46:40.814Z,95026.77
2019-04-20T11:49:09.772Z,95030.56
2019-04-20T11:51:39.442Z,95023.70
2019-04-20T11:54:08.413Z,95028.83
2019-04-20T11:56:40.728Z,95028.50
2019-04-20T11:59:07.530Z,95016.44
2019-04-20T12:01:50.215Z,95016.91
2019-04-20T12:04:26.127Z,95012.27
2019-04-20T12:06:46.574Z,95003.12
2019-04-20T12:09:15.342Z,95003.91
2019-04-20T12:11:55.987Z,95002.69
2019-04-20T12:14:14.518Z,95002.59
2019-04-20T12:16:43.756Z,94999.11
2019-04-20T12:19:12.737Z,94997.98
2019-04-20T12:21:42.179Z,94998.95
2019-04-20T12:24:12.241Z,94997.56
2019-04-20T12:26:41.198Z,94992.34
2019-04-20T12:29:10.021Z,94990.69
2019-04-20T12:31:39.788Z,94987.88
2019-04-20T12:34:08.719Z,94979.41
2019-04-20T12:36:39.495Z,94975.34
2019-04-20T12:39:10.982Z,94976.55
2019-04-20T12:41:48.056Z,94964.34
2019-04-20T12:44:10.137Z,94962.30
2019-04-20T12:46:38.877Z,94964.38
2019-04-20T12:49:07.814Z,94969.66
2019-04-20T12:51:47.418Z,94960.60
2019-04-20T12:54:07.072Z,94958.41
2019-04-20T12:56:35.718Z,94953.59
2019-04-20T12:59:05.532Z,94954.11
2019-04-20T13:01:35.447Z,94945.41
2019-04-20T13:04:07.126Z,94946.84
2019-04-20T13:06:37.127Z,94940.75
2019-04-20T13:09:10.718Z,94948.09
2019-04-20T13:11:50.749Z,94942.42
2019-04-20T13:14:50.664Z,94940.91
2019-04-20T13:17:20.017Z,94944.44
2019-04-20T13:19:49.202Z,94929.02
2019-04-20T13:22:19.017Z,94925.38
2019-04-20T13:24:49.232Z,94925.02
2019-04-20T13:27:18.747Z,94925.91
2019-04-20T13:29:50.541Z,94923.52
2019-04-20T13:32:18.148Z,94925.78
2019-04-20T13:34:47.043Z,94917.85
2019-04-20T13:37:17.985Z,94921.28
2019-04-20T13:39:46.875Z,94913.77
2019-04-20T13:42:22.703Z,94907.61
2019-04-20T13:44:46.126Z,94907.45
2019-04-20T13:47:14.942Z,94903.13
2019-04-20T13:49:45.070Z,94903.27
2019-04-20T13:52:15.026Z,94899.94
2019-04-20T13:54:44.122Z,94893.91
2019-04-20T13:57:19.745Z,94893.41
2019-04-20T13:59:52.127Z,94885.36
2019-04-20T14:02:25.102Z,94885.36
2019-04-20T14:04:58.969Z,94882.45
2019-04-20T14:07:29.233Z,94881.36
2019-04-20T14:09:59.514Z,94874.56
2019-04-20T14:12:35.132Z,94865.90
2019-04-20T14:14:59.450Z,94871.17
2019-04-20T14:17:29.011Z,94864.53
2019-04-20T14:20:01.093Z,94870.69
2019-04-20T14:22:29.297Z,94863.76
2019-04-20T14:24:58.229Z,94861.45
2019-04-20T14:27:26.871Z,94860.27
2019-04-20T14:29:57.002Z,94854.20
2019-04-20T14:32:27.104Z,94859.59
2019-04-20T14:34:56.820Z,94852.49
2019-04-20T14:37:26.746Z,94852.62
2019-04-20T14:39:56.422Z,94847.38
2019-04-20T14:42:34.799Z,94845.45
2019-04-20T14:44:55.777Z,94844.05
2019-04-20T14:47:26.088Z,94846.88
2019-04-20T14:49:55.714Z,94846.61
2019-04-20T14:52:25.900Z,94840.41
2019-04-20T14:54:55.343Z,94841.34
2019-04-20T14:57:25.500Z,94837.75
2019-04-20T14:59:55.994Z,94833.84
2019-04-20T15:02:25.904Z,94833.73
2019-04-20T15:04:54.930Z,94826.89
2019-04-20T15:07:24.657Z,94828.84
2019-04-20T15:09:54.981Z,94831.98
2019-04-20T15:12:37.627Z,94831.15
2019-04-20T15:14:54.581Z,94824.88
2019-04-20T15:17:27.876Z,94822.21
2019-04-20T15:20:05.550Z,94821.36
2019-04-20T15:22:49.662Z,94826.13
2019-04-20T15:25:18.746Z,94817.78
2019-04-20T15:27:48.137Z,94818.81
2019-04-20T15:30:18.353Z,94819.75
2019-04-20T15:32:47.223Z,94810.23
2019-04-20T15:35:19.121Z,94818.20
2019-04-20T15:37:47.040Z,94816.05
2019-04-20T15:40:17.308Z,94814.56
2019-04-20T15:42:56.159Z,94813.95
2019-04-20T15:45:16.570Z,94808.64
2019-04-20T15:47:45.903Z,94813.61
2019-04-20T15:50:15.991Z,94815.99
2019-04-20T15:52:49.425Z,94811.57
2019-04-20T15:55:22.617Z,94809.47
2019-04-20T15:57:45.736Z,94806.38
2019-04-20T16:00:16.231Z,94809.31
2019-04-20T16:02:47.340Z,94810.17
2019-04-20T16:05:18.635Z,94813.35
2019-04-20T16:07:53.489Z,94806.99
2019-04-20T16:10:19.255Z,94805.14
2019-04-20T16:12:52.711Z,94805.66
2019-04-20T16:15:19.892Z,94805.39
2019-04-20T16:17:53.094Z,94805.89
2019-04-20T16:20:23.526Z,94800.31
2019-04-20T16:22:52.259Z,94797.39
2019-04-20T16:25:25.659Z,94805.80
2019-04-20T16:27:55.744Z,94801.75
2019-04-20T16:30:25.392Z,94798.22
2019-04-20T16:32:54.668Z,94797.64
2019-04-20T16:35:24.590Z,94791.47
2019-04-20T16:37:53.515Z,94793.77
2019-04-20T16:40:23.469Z,94784.98
2019-04-20T16:42:52.714Z,94787.43
2019-04-20T16:45:21.537Z,94790.69
2019-04-20T16:47:50.220Z,94791.70
2019-04-20T16:50:19.307Z,94797.81
2019-04-20T16:52:48.841Z,94788.75
2019-04-20T16:55:18.837Z,94788.61
2019-04-20T16:57:49.543Z,94788.61
2019-04-20T17:00:21.013Z,94786.88
2019-04-20T17:02:52.260Z,94790.43
2019-04-20T17:05:23.016Z,94789.48
2019-04-20T17:07:53.655Z,94779.08
2019-04-20T17:10:23.816Z,94781.14
2019-04-20T17:12:53.707Z,94781.45
2019-04-20T17:15:23.620Z,94786.27
2019-04-20T17:17:53.805Z,94787.31
2019-04-20T17:20:25.211Z,94792.84
2019-04-20T17:22:56.234Z,94788.41
2019-04-20T17:25:25.915Z,94787.13
2019-04-20T17:28:06.897Z,94787.97
2019-04-20T17:30:37.917Z,94788.55
2019-04-20T17:33:11.579Z,94787.47
2019-04-20T17:35:52.315Z,94791.78
2019-04-20T17:38:12.160Z,94792.03
2019-04-20T17:41:01.262Z,94799.54
2019-04-20T17:43:22.087Z,94801.13
2019-04-20T17:45:52.363Z,94803.48
2019-04-20T17:48:23.308Z,94801.52
2019-04-20T17:51:04.751Z,94806.67
2019-04-20T17:53:29.383Z,94812.52
2019-04-20T17:55:51.393Z,94817.30
2019-04-20T17:58:24.113Z,94814.46
2019-04-20T18:01:22.048Z,94820.22
2019-04-20T18:04:11.065Z,94823.55
2019-04-20T18:06:34.955Z,94824.88
2019-04-20T18:09:04.785Z,94827.63
2019-04-20T18:11:23.459Z,94823.01
2019-04-20T18:13:58.924Z,94835.38
2019-04-20T18:16:49.315Z,94836.55
2019-04-20T18:19:17.004Z,94843.95
2019-04-20T18:21:43.532Z,94845.51
2019-04-20T18:24:23.962Z,94844.84
2019-04-20T18:26:57.655Z,94844.27
2019-04-20T18:29:37.272Z,94847.86
2019-04-20T18:31:51.449Z,94852.45
2019-04-20T18:34:25.345Z,94858.13
2019-04-20T18:36:52.804Z,94860.64
2019-04-20T18:39:29.105Z,94871.15
2019-04-20T18:42:01.174Z,94864.15
2019-04-20T18:44:30.366Z,94873.45
2019-04-20T18:47:18.215Z,94869.90
2019-04-20T18:49:38.638Z,94868.94
2019-04-20T18:51:55.649Z,94871.40
2019-04-20T18:54:28.667Z,94876.34
2019-04-20T18:56:56.477Z,94875.12
2019-04-20T18:59:31.759Z,94879.84
2019-04-20T19:01:57.023Z,94880.09
2019-04-20T19:04:27.947Z,94879.22
2019-04-20T19:06:59.486Z,94880.05
2019-04-20T19:09:30.439Z,94884.16
2019-04-20T19:12:02.882Z,94883.77
2019-04-20T19:14:42.042Z,94885.61
2019-04-20T19:17:16.718Z,94888.30
2019-04-20T19:19:48.483Z,94885.73
2019-04-20T19:22:14.305Z,94889.83
2019-04-20T19:24:44.920Z,94890.59
2019-04-20T19:27:17.009Z,94889.77
2019-04-20T19:29:55.571Z,94894.97
2019-04-20T19:32:30.263Z,94895.14
2019-04-20T19:34:54.995Z,94890.05
2019-04-20T19:37:24.238Z,94889.52
2019-04-20T19:40:02.818Z,94889.97
2019-04-20T19:42:34.725Z,94889.77
2019-04-20T19:45:01.645Z,94890.39
2019-04-20T19:47:41.606Z,94887.32
2019-04-20T19:50:22.029Z,94895.86
2019-04-20T19:53:09.691Z,94895.73
2019-04-20T19:55:11.414Z,94897.68
2019-04-20T19:57:42.447Z,94901.21
2019-04-20T19:59:55.910Z,94907.53
2019-04-20T20:02:23.691Z,94904.23
2019-04-20T20:04:58.545Z,94909.17
2019-04-20T20:07:30.897Z,94905.36
2019-04-20T20:09:58.209Z,94912.80
2019-04-20T20:12:25.344Z,94914.19
2019-04-20T20:14:55.403Z,94923.63
2019-04-20T20:17:45.362Z,94919.05
2019-04-20T20:20:20.351Z,94920.31
2019-04-20T20:22:35.199Z,94927.03
2019-04-20T20:24:56.815Z,94927.53
2019-04-20T20:27:32.588Z,94925.22
2019-04-20T20:30:08.216Z,94927.58
2019-04-20T20:32:49.070Z,94927.88
2019-04-20T20:35:07.213Z,94931.90
2019-04-20T20:37:34.662Z,94936.51
2019-04-20T20:40:15.195Z,94939.13
2019-04-20T20:42:45.815Z,94941.38
2019-04-20T20:45:11.971Z,94945.78
2019-04-20T20:47:47.158Z,94947.19
2019-04-20T20:50:20.391Z,94945.77
2019-04-20T20:52:50.852Z,94950.09
2019-04-20T20:55:18.223Z,94948.06
2019-04-20T20:57:44.877Z,94952.06
2019-04-20T21:00:25.258Z,94947.18
2019-04-20T21:02:47.197Z,94955.30
2019-04-20T21:05:09.743Z,94950.18
2019-04-20T21:07:38.650Z,94956.00
2019-04-20T21:10:08.745Z,94951.49
2019-04-20T21:12:45.505Z,94958.30
2019-04-20T21:15:16.345Z,94956.08
2019-04-20T21:18:05.542Z,94957.97
2019-04-20T21:20:32.802Z,94957.69
2019-04-20T21:22:58.722Z,94963.93
2019-04-20T21:25:13.010Z,94964.62
2019-04-20T21:27:42.564Z,94958.19
2019-04-20T21:30:18.401Z,94961.44
2019-04-20T21:32:46.990Z,94966.95
2019-04-20T21:35:15.932Z,94968.53
2019-04-20T21:37:51.251Z,94962.35
2019-04-20T21:40:23.289Z,94962.10
2019-04-20T21:42:51.643Z,94964.95
2019-04-20T21:45:19.457Z,94963.87
2019-04-20T21:47:48.290Z,94971.30
2019-04-20T21:50:34.416Z,94970.87
2019-04-20T21:52:51.998Z,94967.45
2019-04-20T21:55:18.352Z,94974.61
2019-04-20T21:57:51.692Z,94966.84
2019-04-20T22:00:40.159Z,94967.59
2019-04-20T22:03:06.277Z,94971.94
2019-04-20T22:05:34.603Z,94973.14
2019-04-20T22:08:07.859Z,94973.16
2019-04-20T22:10:34.659Z,94975.43
2019-04-20T22:13:06.303Z,94974.34
2019-04-20T22:15:45.398Z,94972.61
2019-04-20T22:18:10.981Z,94979.23
2019-04-20T22:20:49.372Z,94979.21
2019-04-20T22:23:23.285Z,94984.53
2019-04-20T22:25:53.102Z,94976.87
2019-04-20T22:28:08.739Z,94981.43
2019-04-20T22:30:37.963Z,94984.11
2019-04-20T22:33:08.217Z,94985.27
2019-04-20T22:35:47.904Z,94983.08
2019-04-20T22:38:26.682Z,94983.66
2019-04-20T22:40:56.591Z,94993.84
2019-04-20T22:43:30.183Z,94995.70
2019-04-20T22:45:57.199Z,94983.27
2019-04-20T22:48:27.060Z,94986.01
2019-04-20T22:51:14.271Z,94986.55
2019-04-20T22:53:45.600Z,94980.09
2019-04-20T22:56:19.765Z,94974.59
2019-04-20T22:58:47.943Z,94972.99
2019-04-20T23:01:05.269Z,94974.38
2019-04-20T23:03:30.955Z,94973.33
2019-04-20T23:06:00.636Z,94976.37
2019-04-20T23:08:30.684Z,94976.73
2019-04-20T23:11:02.590Z,94972.79
2019-04-20T23:13:38.028Z,94972.42
2019-04-20T23:16:02.633Z,94973.41
2019-04-20T23:18:31.936Z,94972.06
2019-04-20T23:21:06.290Z,94966.75
2019-04-20T23:23:32.539Z,94962.75
2019-04-20T23:26:03.009Z,94962.55
2019-04-20T23:28:33.252Z,94958.67
2019-04-20T23:31:07.409Z,94956.33
2019-04-20T23:33:32.651Z,94953.44
2019-04-20T23:36:04.390Z,94953.20
2019-04-20T23:38:32.919Z,94958.72
2019-04-20T23:41:01.833Z,94955.28
2019-04-20T23:43:36.780Z,94953.94
2019-04-20T23:46:22.268Z,94951.89
2019-04-20T23:48:48.108Z,94949.74
2019-04-20T23:51:46.203Z,94946.05
2019-04-20T23:53:56.786Z,94945.73
2019-04-20T23:56:20.168Z,94944.75
2019-04-20T23:58:52.949Z,94940.78
